In Rescue
 
Open Full Screen Window  High Contrast Mode
Wind Gusting 00 knots
10
February 25, 2021 4:12 PM CST
Weather Information
Wind Direction
  190 °
Wind Speed
  10 kt (12 mph)
Wind Gust
  00 kt (0 mph)
Altimeter
30.18 in
Visibility
7 SM
Temperature
05° C
41° F
Dewpoint
00° C
32° F
Humidity
70%
1hr Rain Fall
00.00 in.
24hr Rain Fall
00.00 in.
Sky Condition
Clear
VFR

METAR KGDB 252212Z AUTO 19010KT 7SM CLR 05/00 A3018 RMK AO2 T00461005

FAA Disclaimer: The data displayed is for advisory purposes only and is not to be used for flight planning or operations.